San Angelo's Hourly Summary for Sunday, March 19, 2017
Hour Temp
(f)
RH
(%)
Solar Rad.
(MJ/m2)
Rainfall
(in)
Wind
(mph)
3/19/2017 12:00 AM 69 62 0 0 8.77
3/19/2017 1:00 AM 67 70 0 0 5.76
3/19/2017 2:00 AM 65 76 0 0 5.21
3/19/2017 3:00 AM 65 80 0 0 6.56
3/19/2017 4:00 AM 64 83 0 0 4.55
3/19/2017 5:00 AM 63 85 0 0 6.24
3/19/2017 6:00 AM 63 90 0 0 6.46
3/19/2017 7:00 AM 64 83 0 0 7.41
3/19/2017 8:00 AM 65 82 0 0 9.73
3/19/2017 9:00 AM 66 79 0.14 0 9.26
3/19/2017 10:00 AM 67 73 0.71 0 9.74
3/19/2017 11:00 AM 71 63 1.66 0 10.72
3/19/2017 12:00 PM 75 52 2.51 0 11.15
3/19/2017 1:00 PM 79 43 2.9 0 11.55
3/19/2017 2:00 PM 82 37 3.07 0 11.69
3/19/2017 3:00 PM 85 27 3.01 0 12.72
3/19/2017 4:00 PM 87 22 2.71 0 12.83
3/19/2017 5:00 PM 87 19 2.19 0 13.05
3/19/2017 6:00 PM 87 19 1.5 0 13.07
3/19/2017 7:00 PM 86 17 0.77 0 12.21
3/19/2017 8:00 PM 83 22 0.14 0 11.29
3/19/2017 9:00 PM 79 22 0 0 7.9
3/19/2017 10:00 PM 75 30 0 0 6.2
3/19/2017 11:00 PM 72 37 0 0 8.41
Data Summary 73 53 21.31 0.00 9.27